sensor_id;sensor_type;location;lat;lon;timestamp;pressure;altitude;pressure_sealevel;temperature;humidity
60852;BME280;48553;50.766;2.900;2022-07-29T00:01:37;100959.03;;;21.48;42.81
60852;BME280;48553;50.766;2.900;2022-07-29T00:04:37;100960.25;;;21.44;43.14
60852;BME280;48553;50.766;2.900;2022-07-29T00:07:37;100955.44;;;21.44;43.06
60852;BME280;48553;50.766;2.900;2022-07-29T00:10:38;100949.47;;;21.39;42.97
60852;BME280;48553;50.766;2.900;2022-07-29T00:13:39;100955.84;;;21.39;43.20
60852;BME280;48553;50.766;2.900;2022-07-29T00:16:39;100949.06;;;21.37;43.15
60852;BME280;48553;50.766;2.900;2022-07-29T00:19:40;100949.88;;;21.34;43.17
60852;BME280;48553;50.766;2.900;2022-07-29T00:22:40;100941.91;;;21.32;43.45
60852;BME280;48553;50.766;2.900;2022-07-29T00:25:40;100936.75;;;21.31;43.33
60852;BME280;48553;50.766;2.900;2022-07-29T00:28:41;100947.91;;;21.27;43.17
60852;BME280;48553;50.766;2.900;2022-07-29T00:31:41;100943.94;;;21.24;43.57
60852;BME280;48553;50.766;2.900;2022-07-29T00:34:42;100941.56;;;21.23;43.55
60852;BME280;48553;50.766;2.900;2022-07-29T00:38:01;100942.38;;;21.20;43.48
60852;BME280;48553;50.766;2.900;2022-07-29T00:41:01;100937.22;;;21.15;43.57
60852;BME280;48553;50.766;2.900;2022-07-29T00:44:02;100927.25;;;21.14;43.96
60852;BME280;48553;50.766;2.900;2022-07-29T00:47:02;100934.84;;;21.10;44.07
60852;BME280;48553;50.766;2.900;2022-07-29T00:50:04;100923.28;;;21.11;43.91
60852;BME280;48553;50.766;2.900;2022-07-29T00:53:06;100924.50;;;21.06;43.95
60852;BME280;48553;50.766;2.900;2022-07-29T00:56:07;100920.53;;;21.00;44.11
60852;BME280;48553;50.766;2.900;2022-07-29T00:59:07;100919.34;;;21.01;44.14
60852;BME280;48553;50.766;2.900;2022-07-29T01:02:08;100915.78;;;20.97;43.85
60852;BME280;48553;50.766;2.900;2022-07-29T01:05:10;100918.19;;;20.95;43.85
60852;BME280;48553;50.766;2.900;2022-07-29T01:08:12;100921.00;;;20.92;44.19
60852;BME280;48553;50.766;2.900;2022-07-29T01:11:15;100915.03;;;20.90;44.24
60852;BME280;48553;50.766;2.900;2022-07-29T01:14:16;100903.47;;;20.88;44.18
60852;BME280;48553;50.766;2.900;2022-07-29T01:17:38;100905.09;;;20.81;44.46
60852;BME280;48553;50.766;2.900;2022-07-29T01:24:33;100907.47;;;20.79;44.27
60852;BME280;48553;50.766;2.900;2022-07-29T01:28:15;100903.50;;;20.77;44.31
60852;BME280;48553;50.766;2.900;2022-07-29T01:31:27;100904.72;;;20.72;44.40
60852;BME280;48553;50.766;2.900;2022-07-29T01:38:16;100909.50;;;20.68;44.58
60852;BME280;48553;50.766;2.900;2022-07-29T01:41:20;100907.53;;;20.65;44.50
60852;BME280;48553;50.766;2.900;2022-07-29T01:44:39;100901.16;;;20.61;44.53
60852;BME280;48553;50.766;2.900;2022-07-29T01:47:52;100904.31;;;20.59;44.91
60852;BME280;48553;50.766;2.900;2022-07-29T01:51:07;100903.94;;;20.57;44.74
60852;BME280;48553;50.766;2.900;2022-07-29T01:54:14;100902.31;;;20.53;44.67
60852;BME280;48553;50.766;2.900;2022-07-29T01:57:18;100903.53;;;20.52;44.74
60852;BME280;48553;50.766;2.900;2022-07-29T02:00:22;100898.38;;;20.47;44.94
60852;BME280;48553;50.766;2.900;2022-07-29T02:03:23;100901.16;;;20.47;44.82
60852;BME280;48553;50.766;2.900;2022-07-29T02:06:25;100904.72;;;20.43;45.11
60852;BME280;48553;50.766;2.900;2022-07-29T02:09:26;100895.59;;;20.43;45.12
60852;BME280;48553;50.766;2.900;2022-07-29T02:12:29;100903.13;;;20.39;45.04
60852;BME280;48553;50.766;2.900;2022-07-29T02:15:33;100908.31;;;20.37;45.21
60852;BME280;48553;50.766;2.900;2022-07-29T02:18:36;100910.31;;;20.36;45.26
60852;BME280;48553;50.766;2.900;2022-07-29T02:21:37;100907.94;;;20.31;45.37
60852;BME280;48553;50.766;2.900;2022-07-29T02:24:39;100907.53;;;20.29;45.35
60852;BME280;48553;50.766;2.900;2022-07-29T02:27:41;100911.91;;;20.27;45.56
60852;BME280;48553;50.766;2.900;2022-07-29T02:30:44;100903.56;;;20.27;45.37
60852;BME280;48553;50.766;2.900;2022-07-29T02:33:47;100902.78;;;20.19;45.67
60852;BME280;48553;50.766;2.900;2022-07-29T02:36:49;100905.56;;;20.19;45.60
60852;BME280;48553;50.766;2.900;2022-07-29T02:39:52;100906.75;;;20.18;45.68
60852;BME280;48553;50.766;2.900;2022-07-29T02:42:54;100904.34;;;20.16;45.67
60852;BME280;48553;50.766;2.900;2022-07-29T02:45:55;100913.09;;;20.11;45.80
60852;BME280;48553;50.766;2.900;2022-07-29T02:49:09;100907.16;;;20.13;45.73
60852;BME280;48553;50.766;2.900;2022-07-29T02:52:21;100907.13;;;20.09;45.84
60852;BME280;48553;50.766;2.900;2022-07-29T02:55:30;100903.16;;;20.07;45.99
60852;BME280;48553;50.766;2.900;2022-07-29T02:58:34;100905.16;;;20.06;46.03
60852;BME280;48553;50.766;2.900;2022-07-29T03:01:40;100899.56;;;20.02;46.18
60852;BME280;48553;50.766;2.900;2022-07-29T03:04:43;100900.00;;;20.01;45.93
60852;BME280;48553;50.766;2.900;2022-07-29T03:07:47;100912.28;;;20.00;45.97
60852;BME280;48553;50.766;2.900;2022-07-29T03:10:48;100899.97;;;19.97;46.03
60852;BME280;48553;50.766;2.900;2022-07-29T03:13:50;100903.56;;;19.94;46.15
60852;BME280;48553;50.766;2.900;2022-07-29T03:16:51;100904.34;;;19.91;46.16
60852;BME280;48553;50.766;2.900;2022-07-29T03:19:52;100904.34;;;19.88;46.18
60852;BME280;48553;50.766;2.900;2022-07-29T03:22:53;100903.56;;;19.87;46.18
60852;BME280;48553;50.766;2.900;2022-07-29T03:25:54;100907.13;;;19.84;46.50
60852;BME280;48553;50.766;2.900;2022-07-29T03:28:54;100917.84;;;19.82;46.47
60852;BME280;48553;50.766;2.900;2022-07-29T03:31:55;100911.50;;;19.81;46.57
60852;BME280;48553;50.766;2.900;2022-07-29T03:34:56;100919.03;;;19.77;46.43
60852;BME280;48553;50.766;2.900;2022-07-29T03:37:56;100922.22;;;19.76;46.50
60852;BME280;48553;50.766;2.900;2022-07-29T03:41:00;100924.19;;;19.75;46.52
60852;BME280;48553;50.766;2.900;2022-07-29T03:44:01;100927.38;;;19.74;46.62
60852;BME280;48553;50.766;2.900;2022-07-29T03:47:03;100930.94;;;19.71;46.81
60852;BME280;48553;50.766;2.900;2022-07-29T03:50:08;100924.16;;;19.68;46.81
60852;BME280;48553;50.766;2.900;2022-07-29T03:53:10;100924.16;;;19.65;47.17
60852;BME280;48553;50.766;2.900;2022-07-29T03:56:16;100927.69;;;19.61;47.18
60852;BME280;48553;50.766;2.900;2022-07-29T03:59:17;100913.81;;;19.58;47.13
60852;BME280;48553;50.766;2.900;2022-07-29T04:02:19;100916.19;;;19.59;47.20
60852;BME280;48553;50.766;2.900;2022-07-29T04:05:20;100920.53;;;19.57;47.22
60852;BME280;48553;50.766;2.900;2022-07-29T04:08:21;100922.91;;;19.55;47.19
60852;BME280;48553;50.766;2.900;2022-07-29T04:11:21;100921.72;;;19.52;47.36
60852;BME280;48553;50.766;2.900;2022-07-29T04:14:22;100926.47;;;19.48;47.59
60852;BME280;48553;50.766;2.900;2022-07-29T04:17:22;100928.88;;;19.50;47.45
60852;BME280;48553;50.766;2.900;2022-07-29T04:20:22;100927.28;;;19.49;47.41
60852;BME280;48553;50.766;2.900;2022-07-29T04:23:23;100928.06;;;19.46;47.48
60852;BME280;48553;50.766;2.900;2022-07-29T04:26:23;100922.09;;;19.44;47.60
60852;BME280;48553;50.766;2.900;2022-07-29T04:29:24;100933.63;;;19.42;47.80
60852;BME280;48553;50.766;2.900;2022-07-29T04:32:25;100935.19;;;19.39;48.02
60852;BME280;48553;50.766;2.900;2022-07-29T04:35:26;100936.78;;;19.40;47.92
60852;BME280;48553;50.766;2.900;2022-07-29T04:38:26;100945.09;;;19.37;47.80
60852;BME280;48553;50.766;2.900;2022-07-29T04:41:27;100940.75;;;19.36;48.08
60852;BME280;48553;50.766;2.900;2022-07-29T04:44:28;100943.50;;;19.36;48.04
60852;BME280;48553;50.766;2.900;2022-07-29T04:47:28;100944.72;;;19.35;48.13
60852;BME280;48553;50.766;2.900;2022-07-29T04:50:29;100945.88;;;19.34;48.19
60852;BME280;48553;50.766;2.900;2022-07-29T04:53:29;100935.16;;;19.29;48.31
60852;BME280;48553;50.766;2.900;2022-07-29T04:56:30;100940.34;;;19.30;48.42
60852;BME280;48553;50.766;2.900;2022-07-29T04:59:30;100939.09;;;19.28;48.54
60852;BME280;48553;50.766;2.900;2022-07-29T05:02:30;100950.22;;;19.28;48.60
60852;BME280;48553;50.766;2.900;2022-07-29T05:05:31;100947.03;;;19.26;48.74
60852;BME280;48553;50.766;2.900;2022-07-29T05:08:32;100952.22;;;19.27;48.66
60852;BME280;48553;50.766;2.900;2022-07-29T05:11:32;100959.72;;;19.23;48.85
60852;BME280;48553;50.766;2.900;2022-07-29T05:14:32;100964.50;;;19.23;48.92
60852;BME280;48553;50.766;2.900;2022-07-29T05:17:33;100965.69;;;19.25;48.89
60852;BME280;48553;50.766;2.900;2022-07-29T05:20:33;100966.88;;;19.20;49.10
60852;BME280;48553;50.766;2.900;2022-07-29T05:23:34;100968.84;;;19.20;48.99
60852;BME280;48553;50.766;2.900;2022-07-29T05:26:35;100968.06;;;19.19;49.06
60852;BME280;48553;50.766;2.900;2022-07-29T05:29:35;100969.25;;;19.18;49.10
60852;BME280;48553;50.766;2.900;2022-07-29T05:32:36;100975.19;;;19.20;49.12
60852;BME280;48553;50.766;2.900;2022-07-29T05:35:37;100974.78;;;19.18;49.57
60852;BME280;48553;50.766;2.900;2022-07-29T05:38:37;100976.41;;;19.19;49.85
60852;BME280;48553;50.766;2.900;2022-07-29T05:41:38;100976.03;;;19.25;49.64
60852;BME280;48553;50.766;2.900;2022-07-29T05:44:39;100983.94;;;19.23;49.87
60852;BME280;48553;50.766;2.900;2022-07-29T05:47:39;100984.75;;;19.23;49.83
60852;BME280;48553;50.766;2.900;2022-07-29T05:50:40;100986.75;;;19.26;49.72
60852;BME280;48553;50.766;2.900;2022-07-29T05:53:40;100996.69;;;19.27;49.98
60852;BME280;48553;50.766;2.900;2022-07-29T05:56:41;100984.81;;;19.30;49.88
60852;BME280;48553;50.766;2.900;2022-07-29T05:59:41;100992.75;;;19.35;49.91
60852;BME280;48553;50.766;2.900;2022-07-29T06:02:42;100994.75;;;19.35;50.02
60852;BME280;48553;50.766;2.900;2022-07-29T06:05:42;100998.34;;;19.43;49.84
60852;BME280;48553;50.766;2.900;2022-07-29T06:08:42;100995.97;;;19.45;49.89
60852;BME280;48553;50.766;2.900;2022-07-29T06:11:43;100999.16;;;19.47;49.88
60852;BME280;48553;50.766;2.900;2022-07-29T06:14:43;100993.22;;;19.52;49.90
60852;BME280;48553;50.766;2.900;2022-07-29T06:17:44;101001.19;;;19.53;49.92
60852;BME280;48553;50.766;2.900;2022-07-29T06:20:44;101007.53;;;19.57;49.90
60852;BME280;48553;50.766;2.900;2022-07-29T06:23:45;101003.56;;;19.62;49.73
60852;BME280;48553;50.766;2.900;2022-07-29T06:26:45;101008.38;;;19.69;49.58
60852;BME280;48553;50.766;2.900;2022-07-29T06:29:46;101000.06;;;19.72;49.45
60852;BME280;48553;50.766;2.900;2022-07-29T06:32:46;101002.47;;;19.77;49.47
60852;BME280;48553;50.766;2.900;2022-07-29T06:35:47;100997.31;;;19.83;49.20
60852;BME280;48553;50.766;2.900;2022-07-29T06:38:47;101001.72;;;19.88;49.39
60852;BME280;48553;50.766;2.900;2022-07-29T06:41:48;101005.69;;;19.94;49.26
60852;BME280;48553;50.766;2.900;2022-07-29T06:44:49;101009.69;;;20.00;49.54
60852;BME280;48553;50.766;2.900;2022-07-29T06:47:50;101007.31;;;20.06;49.26
60852;BME280;48553;50.766;2.900;2022-07-29T06:50:50;101005.72;;;20.08;49.64
60852;BME280;48553;50.766;2.900;2022-07-29T06:53:51;101003.34;;;20.10;49.15
60852;BME280;48553;50.766;2.900;2022-07-29T06:56:52;101006.94;;;20.14;49.24
60852;BME280;48553;50.766;2.900;2022-07-29T06:59:53;101014.47;;;20.21;49.66
60852;BME280;48553;50.766;2.900;2022-07-29T07:02:53;101018.09;;;20.29;50.77
60852;BME280;48553;50.766;2.900;2022-07-29T07:05:54;101020.06;;;20.39;51.09
60852;BME280;48553;50.766;2.900;2022-07-29T07:08:55;101024.47;;;20.47;50.58
60852;BME280;48553;50.766;2.900;2022-07-29T07:11:55;101031.66;;;20.59;51.13
60852;BME280;48553;50.766;2.900;2022-07-29T07:14:56;101034.84;;;20.68;50.79
60852;BME280;48553;50.766;2.900;2022-07-29T07:17:56;101034.03;;;20.78;50.64
60852;BME280;48553;50.766;2.900;2022-07-29T07:20:57;101036.00;;;20.89;50.77
60852;BME280;48553;50.766;2.900;2022-07-29T07:23:59;101045.94;;;21.00;50.62
60852;BME280;48553;50.766;2.900;2022-07-29T07:26:59;101039.16;;;21.16;50.46
60852;BME280;48553;50.766;2.900;2022-07-29T07:30:00;101031.94;;;21.36;49.70
60852;BME280;48553;50.766;2.900;2022-07-29T07:33:00;101033.13;;;21.42;49.65
60852;BME280;48553;50.766;2.900;2022-07-29T07:36:01;101040.25;;;21.54;49.38
60852;BME280;48553;50.766;2.900;2022-07-29T07:39:01;101044.59;;;21.66;49.14
60852;BME280;48553;50.766;2.900;2022-07-29T07:42:02;101043.34;;;21.81;48.65
60852;BME280;48553;50.766;2.900;2022-07-29T07:45:03;101040.50;;;21.92;48.65
60852;BME280;48553;50.766;2.900;2022-07-29T07:48:04;101039.63;;;22.06;48.20
60852;BME280;48553;50.766;2.900;2022-07-29T07:51:04;101042.69;;;22.33;47.69
60852;BME280;48553;50.766;2.900;2022-07-29T07:54:05;101044.19;;;22.41;47.43
60852;BME280;48553;50.766;2.900;2022-07-29T07:57:05;101034.50;;;22.60;47.35
60852;BME280;48553;50.766;2.900;2022-07-29T08:00:06;101031.56;;;22.75;46.88
60852;BME280;48553;50.766;2.900;2022-07-29T08:03:06;101032.41;;;22.71;46.97
60852;BME280;48553;50.766;2.900;2022-07-29T08:06:08;101035.13;;;22.79;47.04
60852;BME280;48553;50.766;2.900;2022-07-29T08:09:08;101028.22;;;22.90;47.08
60852;BME280;48553;50.766;2.900;2022-07-29T08:12:09;101039.75;;;23.00;46.80
60852;BME280;48553;50.766;2.900;2022-07-29T08:15:09;101038.03;;;23.09;46.74
60852;BME280;48553;50.766;2.900;2022-07-29T08:18:10;101030.84;;;23.12;46.71
60852;BME280;48553;50.766;2.900;2022-07-29T08:21:11;101040.47;;;23.07;46.67
60852;BME280;48553;50.766;2.900;2022-07-29T08:24:12;101044.06;;;23.08;46.65
60852;BME280;48553;50.766;2.900;2022-07-29T08:27:31;101040.03;;;23.09;46.50
60852;BME280;48553;50.766;2.900;2022-07-29T08:30:32;101045.31;;;23.03;46.33
60852;BME280;48553;50.766;2.900;2022-07-29T08:33:33;101046.50;;;23.02;46.11
60852;BME280;48553;50.766;2.900;2022-07-29T08:36:33;101045.31;;;23.03;46.10
60852;BME280;48553;50.766;2.900;2022-07-29T08:39:34;101049.66;;;23.08;46.00
60852;BME280;48553;50.766;2.900;2022-07-29T08:42:35;101048.81;;;23.11;45.92
60852;BME280;48553;50.766;2.900;2022-07-29T08:45:46;101057.09;;;23.22;45.93
60852;BME280;48553;50.766;2.900;2022-07-29T08:48:47;101060.66;;;23.26;46.25
60852;BME280;48553;50.766;2.900;2022-07-29T08:51:48;101054.13;;;23.36;45.87
60852;BME280;48553;50.766;2.900;2022-07-29T08:54:49;101049.13;;;23.54;45.74
60852;BME280;48553;50.766;2.900;2022-07-29T08:57:49;101052.50;;;23.76;45.30
60852;BME280;48553;50.766;2.900;2022-07-29T09:00:55;101041.53;;;23.89;45.16
60852;BME280;48553;50.766;2.900;2022-07-29T09:03:56;101052.50;;;24.07;44.83
60852;BME280;48553;50.766;2.900;2022-07-29T09:07:00;101049.06;;;24.23;44.44
60852;BME280;48553;50.766;2.900;2022-07-29T09:10:04;101061.25;;;24.36;44.13
60852;BME280;48553;50.766;2.900;2022-07-29T09:13:05;101054.19;;;24.55;44.05
60852;BME280;48553;50.766;2.900;2022-07-29T09:16:05;101058.34;;;24.71;43.78
60852;BME280;48553;50.766;2.900;2022-07-29T09:19:19;101052.84;;;24.87;43.53
60852;BME280;48553;50.766;2.900;2022-07-29T09:22:28;101048.91;;;25.05;43.19
60852;BME280;48553;50.766;2.900;2022-07-29T09:25:34;101059.38;;;25.28;43.15
60852;BME280;48553;50.766;2.900;2022-07-29T09:28:41;101048.28;;;25.40;42.96
60852;BME280;48553;50.766;2.900;2022-07-29T09:31:44;101055.63;;;25.54;42.88
60852;BME280;48553;50.766;2.900;2022-07-29T09:34:45;101055.81;;;25.63;42.28
60852;BME280;48553;50.766;2.900;2022-07-29T09:37:46;101055.03;;;25.83;41.65
60852;BME280;48553;50.766;2.900;2022-07-29T09:41:00;101057.47;;;26.01;41.85
60852;BME280;48553;50.766;2.900;2022-07-29T09:44:00;101059.25;;;26.11;41.65
60852;BME280;48553;50.766;2.900;2022-07-29T09:47:03;101056.13;;;26.25;41.07
60852;BME280;48553;50.766;2.900;2022-07-29T09:50:07;101050.16;;;26.40;40.89
60852;BME280;48553;50.766;2.900;2022-07-29T09:53:08;101063.59;;;26.49;41.01
60852;BME280;48553;50.766;2.900;2022-07-29T09:56:11;101057.41;;;26.57;40.51
60852;BME280;48553;50.766;2.900;2022-07-29T09:59:11;101051.94;;;26.66;40.49
60852;BME280;48553;50.766;2.900;2022-07-29T10:02:12;101050.53;;;26.75;40.14
60852;BME280;48553;50.766;2.900;2022-07-29T10:05:24;101042.09;;;26.91;40.36
60852;BME280;48553;50.766;2.900;2022-07-29T10:08:25;101048.88;;;27.06;40.29
60852;BME280;48553;50.766;2.900;2022-07-29T10:11:26;101044.50;;;27.22;39.73
60852;BME280;48553;50.766;2.900;2022-07-29T10:14:27;101050.06;;;27.38;39.32
60852;BME280;48553;50.766;2.900;2022-07-29T10:17:28;101033.66;;;27.49;38.90
60852;BME280;48553;50.766;2.900;2022-07-29T10:20:29;101039.41;;;27.59;38.99
60852;BME280;48553;50.766;2.900;2022-07-29T10:23:30;101045.53;;;27.70;38.80
60852;BME280;48553;50.766;2.900;2022-07-29T10:26:30;101041.63;;;27.80;38.24
60852;BME280;48553;50.766;2.900;2022-07-29T10:29:31;101049.44;;;27.89;37.79
60852;BME280;48553;50.766;2.900;2022-07-29T10:39:45;101032.31;;;28.35;36.91
60852;BME280;48553;50.766;2.900;2022-07-29T10:42:49;101040.22;;;28.52;36.75
60852;BME280;48553;50.766;2.900;2022-07-29T10:45:56;101045.03;;;28.65;37.13
60852;BME280;48553;50.766;2.900;2022-07-29T10:49:17;101038.13;;;28.66;37.17
60852;BME280;48553;50.766;2.900;2022-07-29T10:52:18;101042.59;;;28.89;36.48
60852;BME280;48553;50.766;2.900;2022-07-29T10:55:37;101041.44;;;28.99;36.90
60852;BME280;48553;50.766;2.900;2022-07-29T10:58:42;101036.78;;;29.05;36.92
60852;BME280;48553;50.766;2.900;2022-07-29T11:01:42;101035.00;;;29.11;36.67
60852;BME280;48553;50.766;2.900;2022-07-29T11:21:00;101040.91;;;29.48;35.16
60852;BME280;48553;50.766;2.900;2022-07-29T11:24:14;101037.94;;;29.74;34.72
60852;BME280;48553;50.766;2.900;2022-07-29T11:27:16;101035.03;;;29.87;35.04
60852;BME280;48553;50.766;2.900;2022-07-29T11:30:17;101044.38;;;30.06;34.11
60852;BME280;48553;50.766;2.900;2022-07-29T11:33:46;101042.84;;;30.14;35.01
60852;BME280;48553;50.766;2.900;2022-07-29T11:40:11;101041.34;;;30.31;34.32
60852;BME280;48553;50.766;2.900;2022-07-29T11:43:48;101039.38;;;30.50;34.58
60852;BME280;48553;50.766;2.900;2022-07-29T11:46:50;101047.25;;;30.65;33.92
60852;BME280;48553;50.766;2.900;2022-07-29T11:49:51;101044.13;;;30.81;33.49
60852;BME280;48553;50.766;2.900;2022-07-29T11:52:52;101045.25;;;30.93;33.78
60852;BME280;48553;50.766;2.900;2022-07-29T11:55:55;101034.88;;;30.99;33.85
60852;BME280;48553;50.766;2.900;2022-07-29T11:59:06;101046.34;;;30.86;33.25
60852;BME280;48553;50.766;2.900;2022-07-29T12:02:09;101047.59;;;30.76;33.42
60852;BME280;48553;50.766;2.900;2022-07-29T12:05:10;101041.28;;;30.72;33.39
60852;BME280;48553;50.766;2.900;2022-07-29T12:08:16;101044.44;;;30.74;32.91
60852;BME280;48553;50.766;2.900;2022-07-29T12:11:20;101047.28;;;30.74;33.36
60852;BME280;48553;50.766;2.900;2022-07-29T12:14:28;101041.16;;;30.75;33.54
60852;BME280;48553;50.766;2.900;2022-07-29T12:17:31;101040.31;;;30.66;33.29
60852;BME280;48553;50.766;2.900;2022-07-29T12:20:32;101039.94;;;30.36;33.62
60852;BME280;48553;50.766;2.900;2022-07-29T12:23:34;101049.41;;;30.51;33.00
60852;BME280;48553;50.766;2.900;2022-07-29T12:26:35;101047.22;;;30.46;33.11
60852;BME280;48553;50.766;2.900;2022-07-29T12:29:36;101048.31;;;30.49;33.17
60852;BME280;48553;50.766;2.900;2022-07-29T12:32:38;101044.38;;;30.37;33.26
60852;BME280;48553;50.766;2.900;2022-07-29T12:35:39;101039.84;;;30.49;33.24
60852;BME280;48553;50.766;2.900;2022-07-29T12:38:40;101029.19;;;30.62;33.34
60852;BME280;48553;50.766;2.900;2022-07-29T12:41:40;101036.09;;;30.70;33.44
60852;BME280;48553;50.766;2.900;2022-07-29T12:44:45;101037.41;;;30.88;33.13
60852;BME280;48553;50.766;2.900;2022-07-29T12:47:52;101024.53;;;30.87;33.52
60852;BME280;48553;50.766;2.900;2022-07-29T12:50:57;101037.25;;;31.00;32.90
60852;BME280;48553;50.766;2.900;2022-07-29T12:54:07;101037.41;;;31.06;33.12
60852;BME280;48553;50.766;2.900;2022-07-29T12:57:08;101037.25;;;31.10;32.83
60852;BME280;48553;50.766;2.900;2022-07-29T13:00:11;101028.13;;;31.15;32.91
60852;BME280;48553;50.766;2.900;2022-07-29T13:03:12;101042.59;;;31.08;32.88
60852;BME280;48553;50.766;2.900;2022-07-29T13:09:43;101038.81;;;31.11;32.57
60852;BME280;48553;50.766;2.900;2022-07-29T13:13:14;101045.13;;;31.15;32.77
60852;BME280;48553;50.766;2.900;2022-07-29T13:16:15;101042.59;;;31.17;32.62
60852;BME280;48553;50.766;2.900;2022-07-29T13:19:15;101040.72;;;31.23;31.99
60852;BME280;48553;50.766;2.900;2022-07-29T13:22:17;101043.53;;;31.32;32.38
60852;BME280;48553;50.766;2.900;2022-07-29T13:25:31;101046.50;;;31.38;32.26
60852;BME280;48553;50.766;2.900;2022-07-29T13:28:32;101047.31;;;31.29;32.59
60852;BME280;48553;50.766;2.900;2022-07-29T13:31:32;101048.25;;;31.26;32.31
60852;BME280;48553;50.766;2.900;2022-07-29T13:34:33;101046.84;;;31.21;32.71
60852;BME280;48553;50.766;2.900;2022-07-29T13:37:34;101053.28;;;31.04;33.00
60852;BME280;48553;50.766;2.900;2022-07-29T13:40:38;101058.00;;;31.07;32.21
60852;BME280;48553;50.766;2.900;2022-07-29T13:43:38;101052.06;;;31.14;32.49
60852;BME280;48553;50.766;2.900;2022-07-29T13:46:38;101061.66;;;31.16;32.57
60852;BME280;48553;50.766;2.900;2022-07-29T13:49:39;101056.91;;;31.22;32.71
60852;BME280;48553;50.766;2.900;2022-07-29T13:52:39;101060.22;;;31.21;33.02
60852;BME280;48553;50.766;2.900;2022-07-29T13:55:40;101052.50;;;31.21;32.74
60852;BME280;48553;50.766;2.900;2022-07-29T13:58:40;101057.41;;;31.21;32.73
60852;BME280;48553;50.766;2.900;2022-07-29T14:01:41;101066.03;;;31.27;32.88
60852;BME280;48553;50.766;2.900;2022-07-29T14:04:42;101066.81;;;31.18;32.42
60852;BME280;48553;50.766;2.900;2022-07-29T14:07:42;101075.00;;;31.07;32.67
60852;BME280;48553;50.766;2.900;2022-07-29T14:10:43;101066.03;;;31.17;32.43
60852;BME280;48553;50.766;2.900;2022-07-29T14:13:43;101061.00;;;31.21;32.61
60852;BME280;48553;50.766;2.900;2022-07-29T14:16:44;101070.59;;;31.24;32.72
60852;BME280;48553;50.766;2.900;2022-07-29T14:19:44;101070.91;;;31.17;32.81
60852;BME280;48553;50.766;2.900;2022-07-29T14:22:44;101061.66;;;31.16;32.73
60852;BME280;48553;50.766;2.900;2022-07-29T14:25:45;101066.53;;;31.16;32.46
60852;BME280;48553;50.766;2.900;2022-07-29T14:28:46;101068.56;;;31.15;32.68
60852;BME280;48553;50.766;2.900;2022-07-29T14:31:46;101056.75;;;31.26;32.30
60852;BME280;48553;50.766;2.900;2022-07-29T14:34:47;101072.19;;;31.16;32.57
60852;BME280;48553;50.766;2.900;2022-07-29T14:37:47;101069.03;;;31.05;32.65
60852;BME280;48553;50.766;2.900;2022-07-29T14:40:48;101064.75;;;30.91;32.86
60852;BME280;48553;50.766;2.900;2022-07-29T14:43:48;101071.38;;;30.88;32.48
60852;BME280;48553;50.766;2.900;2022-07-29T14:46:48;101062.75;;;31.00;32.49
60852;BME280;48553;50.766;2.900;2022-07-29T14:49:49;101055.97;;;30.98;32.58
60852;BME280;48553;50.766;2.900;2022-07-29T14:52:50;101062.41;;;30.89;32.84
60852;BME280;48553;50.766;2.900;2022-07-29T14:55:50;101068.50;;;30.78;32.53
60852;BME280;48553;50.766;2.900;2022-07-29T14:58:51;101060.63;;;30.73;32.62
60852;BME280;48553;50.766;2.900;2022-07-29T15:01:51;101072.41;;;30.63;32.99
60852;BME280;48553;50.766;2.900;2022-07-29T15:04:52;101063.88;;;30.53;32.93
60852;BME280;48553;50.766;2.900;2022-07-29T15:07:52;101065.44;;;30.54;32.60
60852;BME280;48553;50.766;2.900;2022-07-29T15:10:53;101069.25;;;30.70;32.44
60852;BME280;48553;50.766;2.900;2022-07-29T15:13:54;101069.56;;;30.63;32.77
60852;BME280;48553;50.766;2.900;2022-07-29T15:16:54;101086.38;;;30.57;32.93
60852;BME280;48553;50.766;2.900;2022-07-29T15:19:55;101071.72;;;30.49;32.69
60852;BME280;48553;50.766;2.900;2022-07-29T15:22:55;101071.53;;;30.34;32.64
60852;BME280;48553;50.766;2.900;2022-07-29T15:25:56;101070.59;;;30.37;32.93
60852;BME280;48553;50.766;2.900;2022-07-29T15:28:56;101077.00;;;30.29;32.89
60852;BME280;48553;50.766;2.900;2022-07-29T15:31:56;101068.72;;;30.34;32.63
60852;BME280;48553;50.766;2.900;2022-07-29T15:34:57;101070.66;;;30.25;32.65
60852;BME280;48553;50.766;2.900;2022-07-29T15:37:57;101072.22;;;30.16;32.57
60852;BME280;48553;50.766;2.900;2022-07-29T15:40:58;101073.63;;;30.12;32.30
60852;BME280;48553;50.766;2.900;2022-07-29T15:43:58;101072.47;;;30.00;32.55
60852;BME280;48553;50.766;2.900;2022-07-29T15:46:59;101057.03;;;29.92;32.26
60852;BME280;48553;50.766;2.900;2022-07-29T15:50:06;101074.00;;;29.92;32.59
60852;BME280;48553;50.766;2.900;2022-07-29T15:53:11;101074.88;;;29.80;32.58
60852;BME280;48553;50.766;2.900;2022-07-29T15:56:12;101080.31;;;29.74;33.01
60852;BME280;48553;50.766;2.900;2022-07-29T15:59:12;101080.22;;;29.65;32.79
60852;BME280;48553;50.766;2.900;2022-07-29T16:02:13;101085.16;;;29.51;32.89
60852;BME280;48553;50.766;2.900;2022-07-29T16:05:13;101083.38;;;29.45;32.97
60852;BME280;48553;50.766;2.900;2022-07-29T16:08:14;101084.31;;;29.42;33.04
60852;BME280;48553;50.766;2.900;2022-07-29T16:11:14;101091.34;;;29.37;32.99
60852;BME280;48553;50.766;2.900;2022-07-29T16:14:16;101086.91;;;29.36;33.11
60852;BME280;48553;50.766;2.900;2022-07-29T16:17:17;101084.25;;;29.32;32.62
60852;BME280;48553;50.766;2.900;2022-07-29T16:20:18;101087.31;;;29.25;32.85
60852;BME280;48553;50.766;2.900;2022-07-29T16:23:19;101090.94;;;29.26;33.06
60852;BME280;48553;50.766;2.900;2022-07-29T16:26:20;101093.34;;;29.14;33.31
60852;BME280;48553;50.766;2.900;2022-07-29T16:29:20;101087.59;;;29.05;33.21
60852;BME280;48553;50.766;2.900;2022-07-29T16:32:21;101104.09;;;28.94;33.65